Time;durP1;ratioP1;P1;durP2;ratioP2;P2;SDS_P1;SDS_P2;PMS_P1;PMS_P2;Temp;Humidity;BMP_temperature;BMP_pressure;BME280_temperature;BME280_humidity;BME280_pressure;Samples;Min_cycle;Max_cycle;Signal;HPM_P1;HPM_P2
2023/01/25 08:39:09;;;;;;;;;;;;;;;5.16;100.00;101176.81;5039936;28;19987;-84
2023/01/25 08:41:37;;;;;;;;;;;;;;;5.19;100.00;101175.06;5054594;28;19928;-87
2023/01/25 08:44:03;;;;;;;;;;;;;;;5.24;100.00;101168.06;5054487;28;20351;-87
2023/01/25 08:46:29;;;;;;;;;;;;;;;5.27;100.00;101162.81;5054914;28;20011;-89
2023/01/25 08:51:27;;;;;;;;;;;;;;;5.37;100.00;101165.44;5093307;22;19931;-89
2023/01/25 08:53:53;;;;;;;;;;;;;;;5.39;100.00;101166.31;5033656;28;19921;-86
2023/01/25 08:56:27;;;;;;;;;;;;;;;5.44;100.00;101159.28;5016628;28;19917;-89
2023/01/25 08:58:52;;;;;;;;;;;;;;;5.49;100.00;101162.81;5034291;28;19917;-86
2023/01/25 09:01:18;;;;;;;;;;;;;;;5.50;100.00;101166.31;5034241;28;19924;-87
2023/01/25 09:03:45;;;;;;;;;;;;;;;5.51;100.00;101166.31;5016740;28;19917;-85
2023/01/25 09:06:11;;;;;;;;;;;;;;;5.55;100.00;101156.66;5034421;28;19917;-90
2023/01/25 09:08:39;;;;;;;;;;;;;;;5.59;100.00;101171.59;5015395;28;19917;-88
2023/01/25 09:11:06;;;;;;;;;;;;;;;5.63;100.00;101163.69;5034566;28;19924;-88
2023/01/25 09:13:31;;;;;;;;;;;;;;;5.65;100.00;101161.06;5034466;28;19958;-90
2023/01/25 09:16:00;;;;;;;;;;;;;;;5.69;100.00;101160.16;5034769;28;19917;-91
2023/01/25 09:18:26;;;;;;;;;;;;;;;6.21;100.00;101151.34;5033912;28;19971;-85
2023/01/25 09:20:51;;;;;;;;;;;;;;;6.49;100.00;101151.22;5033918;28;19921;-85
2023/01/25 09:23:18;;;;;;;;;;;;;;;6.80;100.00;101159.88;5032709;28;20184;-88
2023/01/25 09:25:43;;;;;;;;;;;;;;;6.60;100.00;101159.94;5015953;28;19979;-87
2023/01/25 09:28:11;;;;;;;;;;;;;;;5.89;100.00;101170.69;5016155;28;20375;-90
2023/01/25 09:30:54;;;;;;;;;;;;;;;5.88;100.00;101166.28;5016056;28;19940;-87
2023/01/25 09:33:22;;;;;;;;;;;;;;;5.75;100.00;101167.19;5016002;28;19921;-87
2023/01/25 09:35:58;;;;;;;;;;;;;;;5.62;100.00;101163.69;5015998;28;19921;-87
2023/01/25 09:38:33;;;;;;;;;;;;;;;4.79;100.00;101164.47;5032464;28;19917;-86
2023/01/25 09:40:58;;;;;;;;;;;;;;;4.25;100.00;101166.00;5033614;28;19939;-84
2023/01/25 09:43:39;;;;;;;;;;;;;;;3.86;100.00;101172.75;5033428;28;20368;-83
2023/01/25 09:46:37;;;;;;;;;;;;;;;3.68;100.00;101174.38;5033581;28;20382;-82
2023/01/25 09:49:09;;;;;;;;;;;;;;;3.41;100.00;101172.41;4989454;28;19971;-84
2023/01/25 09:51:40;;;;;;;;;;;;;;;3.27;100.00;101167.94;5025095;28;19947;-88
2023/01/25 09:54:11;;;;;;;;;;;;;;;3.10;100.00;101172.16;5032105;28;19917;-88
2023/01/25 09:56:38;;;;;;;;;;;;;;;3.00;100.00;101173.78;5033297;28;19921;-83
2023/01/25 09:59:08;;;;;;;;;;;;;;;2.95;100.00;101167.59;5032224;28;20346;-86
2023/01/25 10:01:53;;;;;;;;;;;;;;;2.78;100.00;101161.34;5033007;28;19914;-88
2023/01/25 10:04:51;;;;;;;;;;;;;;;2.74;100.00;101160.41;5032192;28;19924;-87
2023/01/25 10:07:23;;;;;;;;;;;;;;;2.61;100.00;101154.16;4977058;28;19959;-86
2023/01/25 10:09:55;;;;;;;;;;;;;;;2.72;100.00;101146.44;5033279;28;19925;-87
2023/01/25 10:12:24;;;;;;;;;;;;;;;2.64;100.00;101146.34;5033363;28;19956;-89
2023/01/25 10:14:50;;;;;;;;;;;;;;;2.57;100.00;101141.03;5032136;28;19921;-89
2023/01/25 10:17:25;;;;;;;;;;;;;;;2.52;100.00;101138.34;5031927;28;19978;-90
2023/01/25 10:19:59;;;;;;;;;;;;;;;2.45;100.00;101142.63;5033551;28;19924;-84
2023/01/25 10:22:36;;;;;;;;;;;;;;;2.47;100.00;101140.03;5030532;28;19940;-82
2023/01/25 10:25:20;;;;;;;;;;;;;;;2.34;100.00;101134.66;5032083;28;19921;-85
2023/01/25 10:27:57;;;;;;;;;;;;;;;2.34;100.00;101132.03;5032135;28;19947;-87
2023/01/25 10:30:27;;;;;;;;;;;;;;;2.31;100.00;101129.41;5031870;28;19945;-87
2023/01/25 10:33:09;;;;;;;;;;;;;;;2.28;100.00;101120.63;5031961;28;19955;-86
2023/01/25 10:35:36;;;;;;;;;;;;;;;2.19;100.00;101126.63;5033106;28;19921;-88
2023/01/25 10:38:04;;;;;;;;;;;;;;;2.23;100.00;101112.72;5031758;28;19957;-84
2023/01/25 10:40:37;;;;;;;;;;;;;;;2.58;100.00;101114.88;5031699;28;19917;-87
2023/01/25 10:43:06;;;;;;;;;;;;;;;3.05;100.00;101111.00;5033658;28;19960;-86
2023/01/25 10:45:32;;;;;;;;;;;;;;;3.41;100.00;101107.78;5015021;28;19924;-84
2023/01/25 10:48:02;;;;;;;;;;;;;;;3.63;100.00;101103.56;5032981;28;19921;-82
2023/01/25 10:50:45;;;;;;;;;;;;;;;3.76;100.00;101098.41;5032666;28;19921;-84
2023/01/25 10:53:29;;;;;;;;;;;;;;;3.91;100.00;101092.38;5031448;28;19924;-91
2023/01/25 10:56:04;;;;;;;;;;;;;;;4.00;100.00;101084.56;5032751;28;19951;-85
2023/01/25 10:58:30;;;;;;;;;;;;;;;4.07;100.00;101078.47;5032958;28;20821;-87
2023/01/25 11:00:56;;;;;;;;;;;;;;;4.13;100.00;101068.00;5015127;28;20437;-88
2023/01/25 11:03:23;;;;;;;;;;;;;;;4.23;100.00;101074.16;5032880;28;20007;-86
2023/01/25 11:05:52;;;;;;;;;;;;;;;4.28;100.00;101076.81;5014910;28;19917;-88
2023/01/25 11:08:24;;;;;;;;;;;;;;;4.33;100.00;101064.56;5031237;28;20368;-89
2023/01/25 11:10:50;;;;;;;;;;;;;;;4.40;100.00;101058.47;5032609;28;20273;-87
2023/01/25 11:13:18;;;;;;;;;;;;;;;4.46;100.00;101063.72;5032673;28;19917;-88
2023/01/25 11:15:43;;;;;;;;;;;;;;;4.49;100.00;101050.63;5036347;28;20288;-85
2023/01/25 11:18:17;;;;;;;;;;;;;;;4.53;100.00;101047.13;5036100;28;19923;-90
2023/01/25 11:20:43;;;;;;;;;;;;;;;4.53;100.00;101051.50;5036139;28;20023;-87
2023/01/25 11:23:20;;;;;;;;;;;;;;;4.57;100.00;101047.16;5034767;28;20015;-86
2023/01/25 11:25:45;;;;;;;;;;;;;;;4.62;100.00;101037.53;5035992;28;20016;-85
2023/01/25 11:28:19;;;;;;;;;;;;;;;4.62;100.00;101035.75;5018295;28;20015;-86
2023/01/25 11:30:44;;;;;;;;;;;;;;;4.67;100.00;101033.16;5035708;28;20360;-86
2023/01/25 11:33:21;;;;;;;;;;;;;;;4.69;100.00;101034.91;5035875;28;19924;-88
2023/01/25 11:36:15;;;;;;;;;;;;;;;4.74;100.00;101029.66;5018492;28;19917;-85
2023/01/25 11:38:48;;;;;;;;;;;;;;;4.78;100.00;101031.41;4987780;28;19929;-84
2023/01/25 11:41:23;;;;;;;;;;;;;;;4.78;100.00;101026.16;5035668;28;19917;-85
2023/01/25 11:44:07;;;;;;;;;;;;;;;4.81;100.00;101026.16;5017881;28;19917;-89
2023/01/25 11:46:46;;;;;;;;;;;;;;;4.87;100.00;101020.03;5035539;28;20417;-87
2023/01/25 11:49:26;;;;;;;;;;;;;;;4.90;100.00;101012.16;5017866;28;20012;-87
2023/01/25 11:52:11;;;;;;;;;;;;;;;4.94;100.00;101005.16;5029106;28;20020;-87
2023/01/25 11:54:42;;;;;;;;;;;;;;;4.93;100.00;100998.13;5034818;28;19964;-87
2023/01/25 11:57:28;;;;;;;;;;;;;;;4.97;100.00;100989.41;5035544;28;19971;-88
2023/01/25 11:59:53;;;;;;;;;;;;;;;5.01;100.00;100992.03;5034291;28;19917;-87
2023/01/25 12:02:24;;;;;;;;;;;;;;;5.04;100.00;100980.63;5034213;28;19983;-88
2023/01/25 12:04:58;;;;;;;;;;;;;;;5.05;100.00;100980.63;5035218;28;19971;-87
2023/01/25 12:07:41;;;;;;;;;;;;;;;5.06;100.00;100985.00;5033928;28;19917;-89
2023/01/25 12:10:12;;;;;;;;;;;;;;;5.09;100.00;100969.25;5035513;28;19917;-83
2023/01/25 12:12:53;;;;;;;;;;;;;;;5.19;100.00;100970.09;5035320;28;20482;-87
2023/01/25 12:15:33;;;;;;;;;;;;;;;5.20;100.00;100969.22;5033968;28;19956;-88
2023/01/25 12:17:58;;;;;;;;;;;;;;;5.20;100.00;100956.09;5034321;28;20372;-84
2023/01/25 12:20:38;;;;;;;;;;;;;;;5.24;100.00;100946.44;5035258;28;19924;-89
2023/01/25 12:23:18;;;;;;;;;;;;;;;5.24;100.00;100944.66;5033724;28;19913;-88
2023/01/25 12:25:59;;;;;;;;;;;;;;;5.25;100.00;100938.56;5034779;28;19917;-89
2023/01/25 12:28:28;;;;;;;;;;;;;;;5.27;100.00;100931.53;5035275;28;19917;-90
2023/01/25 12:31:19;;;;;;;;;;;;;;;;;;;;;
2023/01/25 12:33:49;;;;;;;;;;;;;;;5.30;100.00;100924.50;5034806;28;19923;-87
2023/01/25 12:36:34;;;;;;;;;;;;;;;5.29;100.00;100923.63;5033543;28;19925;-92
2023/01/25 12:39:02;;;;;;;;;;;;;;;5.32;100.00;100912.25;5034070;28;19964;-89
2023/01/25 12:41:34;;;;;;;;;;;;;;;5.33;100.00;100911.34;5033379;28;19921;-84
2023/01/25 12:44:08;;;;;;;;;;;;;;;5.34;100.00;100910.47;5034535;28;19921;-85
2023/01/25 12:46:39;;;;;;;;;;;;;;;5.36;100.00;100904.34;5035594;28;19917;-91
2023/01/25 12:49:09;;;;;;;;;;;;;;;5.35;100.00;100902.59;5033333;28;19924;-89
2023/01/25 12:51:36;;;;;;;;;;;;;;;5.38;100.00;100901.72;5033304;28;20020;-89
2023/01/25 12:54:24;;;;;;;;;;;;;;;5.38;100.00;100899.09;5033882;28;19956;-89
2023/01/25 12:56:57;;;;;;;;;;;;;;;5.42;100.00;100898.19;5034570;28;19913;-88
2023/01/25 13:02:23;;;;;;;;;;;;;;;5.41;100.00;100880.69;5027188;28;20000;-89
2023/01/25 13:05:22;;;;;;;;;;;;;;;;;;;;;
2023/01/25 13:08:03;;;;;;;;;;;;;;;5.48;100.00;100877.13;4972204;28;19941;-88
2023/01/25 13:10:32;;;;;;;;;;;;;;;5.49;100.00;100873.63;5033287;28;19917;-88
2023/01/25 13:13:02;;;;;;;;;;;;;;;5.52;100.00;100867.47;5034114;28;20271;-88
2023/01/25 13:15:43;;;;;;;;;;;;;;;5.48;100.00;100866.63;5034258;28;20390;-88
2023/01/25 13:18:34;;;;;;;;;;;;;;;5.48;100.00;100864.00;5035136;28;19951;-88
2023/01/25 13:21:22;;;;;;;;;;;;;;;5.53;100.00;100853.44;5034662;28;19947;-93
2023/01/25 13:24:06;;;;;;;;;;;;;;;5.53;100.00;100856.09;5029725;28;20386;-90
2023/01/25 13:26:37;;;;;;;;;;;;;;;5.53;100.00;100851.69;5033209;28;19918;-87
2023/01/25 13:29:03;;;;;;;;;;;;;;;5.53;100.00;100838.53;5033806;28;20376;-86
2023/01/25 13:31:37;;;;;;;;;;;;;;;5.53;100.00;100849.06;5032532;28;19936;-86
2023/01/25 13:34:09;;;;;;;;;;;;;;;5.55;100.00;100838.53;5033854;28;19917;-87
2023/01/25 13:36:51;;;;;;;;;;;;;;;5.56;100.00;100835.03;5031909;28;20353;-89
2023/01/25 13:39:30;;;;;;;;;;;;;;;5.56;100.00;100828.00;5033692;28;19917;-88
2023/01/25 13:42:10;;;;;;;;;;;;;;;5.56;100.00;100825.38;5034252;28;19917;-88
2023/01/25 13:44:42;;;;;;;;;;;;;;;5.58;100.00;100826.22;5032689;28;19964;-85
2023/01/25 13:47:10;;;;;;;;;;;;;;;5.59;100.00;100825.38;5033802;28;20353;-87
2023/01/25 13:49:42;;;;;;;;;;;;;;;5.59;100.00;100825.38;5032608;28;19913;-87
2023/01/25 13:52:15;;;;;;;;;;;;;;;5.57;100.00;100824.50;5033182;28;19921;-88
2023/01/25 13:54:44;;;;;;;;;;;;;;;5.59;100.00;100822.72;5015328;28;19917;-87
2023/01/25 13:57:14;;;;;;;;;;;;;;;5.58;100.00;100826.22;5033707;28;19921;-90
2023/01/25 13:59:42;;;;;;;;;;;;;;;5.61;100.00;100820.97;5015717;28;19921;-87
2023/01/25 14:02:16;;;;;;;;;;;;;;;5.63;100.00;100813.97;5015578;28;19917;-89
2023/01/25 14:04:45;;;;;;;;;;;;;;;5.63;100.00;100811.34;5033206;28;20022;-87
2023/01/25 14:07:14;;;;;;;;;;;;;;;5.63;100.00;100807.81;5031790;28;19924;-88
2023/01/25 14:09:44;;;;;;;;;;;;;;;5.61;100.00;100802.56;5015489;28;19932;-86
2023/01/25 14:12:11;;;;;;;;;;;;;;;5.66;100.00;100797.28;5033430;28;19964;-87
2023/01/25 14:14:40;;;;;;;;;;;;;;;5.68;100.00;100792.00;5033229;28;19956;-86
2023/01/25 14:17:08;;;;;;;;;;;;;;;5.67;100.00;100785.00;5033214;28;20004;-89
2023/01/25 14:19:43;;;;;;;;;;;;;;;5.68;100.00;100789.38;5033027;28;19917;-89
2023/01/25 14:22:25;;;;;;;;;;;;;;;5.64;100.00;100794.66;5031829;28;19918;-87
2023/01/25 14:25:08;;;;;;;;;;;;;;;5.69;100.00;100786.72;5015298;28;20371;-88
2023/01/25 14:27:35;;;;;;;;;;;;;;;5.70;100.00;100790.25;5032972;28;19917;-88
2023/01/25 14:30:01;;;;;;;;;;;;;;;5.70;100.00;100790.25;5033086;28;19921;-88
2023/01/25 14:32:27;;;;;;;;;;;;;;;5.71;100.00;100778.84;5015288;28;19936;-88
2023/01/25 14:34:54;;;;;;;;;;;;;;;5.73;100.00;100779.72;5015199;28;20250;-85
2023/01/25 14:37:23;;;;;;;;;;;;;;;5.71;100.00;100773.56;5013961;28;19921;-89
2023/01/25 14:39:51;;;;;;;;;;;;;;;5.71;100.00;100766.59;5033366;28;20394;-90
2023/01/25 14:42:17;;;;;;;;;;;;;;;5.72;100.00;100760.41;5033199;28;19917;-85
2023/01/25 14:44:43;;;;;;;;;;;;;;;5.72;100.00;100756.94;5032661;28;19987;-85
2023/01/25 14:47:19;;;;;;;;;;;;;;;5.72;100.00;100754.28;5032973;28;19953;-87
2023/01/25 14:49:45;;;;;;;;;;;;;;;5.75;100.00;100749.00;5035274;28;19968;-84
2023/01/25 14:52:12;;;;;;;;;;;;;;;5.76;100.00;100742.84;5035271;28;19921;-84
2023/01/25 14:54:44;;;;;;;;;;;;;;;5.76;100.00;100741.13;5036505;28;19924;-86
2023/01/25 14:57:28;;;;;;;;;;;;;;;5.78;100.00;100738.47;5018841;28;20012;-85
2023/01/25 14:59:54;;;;;;;;;;;;;;;5.76;100.00;100737.59;5018813;28;20399;-85
2023/01/25 15:02:23;;;;;;;;;;;;;;;5.79;100.00;100734.94;5036552;28;19917;-89
2023/01/25 15:04:55;;;;;;;;;;;;;;;5.77;100.00;100731.44;5018582;28;19944;-83
2023/01/25 15:07:31;;;;;;;;;;;;;;;5.76;100.00;100725.34;5034959;28;20399;-83
2023/01/25 15:10:14;;;;;;;;;;;;;;;5.80;100.00;100726.16;5035979;28;20445;-86
2023/01/25 15:12:39;;;;;;;;;;;;;;;5.80;100.00;100728.81;5018464;28;19921;-84
2023/01/25 15:15:18;;;;;;;;;;;;;;;5.81;100.00;100720.91;5018386;28;19917;-85
2023/01/25 15:18:08;;;;;;;;;;;;;;;5.81;100.00;100720.91;5036081;28;20319;-86
2023/01/25 15:20:30;;;;;;;;;;;;;;;5.82;100.00;100714.78;5034571;28;20139;-89
2023/01/25 15:22:58;;;;;;;;;;;;;;;5.83;100.00;100708.59;5018118;28;19917;-87
2023/01/25 15:25:24;;;;;;;;;;;;;;;5.83;100.00;100705.97;5018917;28;19917;-88
2023/01/25 15:27:54;;;;;;;;;;;;;;;5.82;100.00;100703.34;5018919;28;19928;-90
2023/01/25 15:30:19;;;;;;;;;;;;;;;5.84;100.00;100701.59;5018586;28;19970;-88
2023/01/25 15:32:54;;;;;;;;;;;;;;;5.85;100.00;100703.31;5036234;28;20007;-87
2023/01/25 15:35:22;;;;;;;;;;;;;;;5.84;100.00;100712.13;5036371;28;19921;-85
2023/01/25 15:37:47;;;;;;;;;;;;;;;5.86;100.00;100710.34;5035559;28;19924;-92
2023/01/25 15:40:13;;;;;;;;;;;;;;;5.87;100.00;100708.56;5036287;28;19921;-91
2023/01/25 15:42:39;;;;;;;;;;;;;;;5.88;100.00;100703.31;5035972;28;19920;-92
2023/01/25 15:45:05;;;;;;;;;;;;;;;5.87;100.00;100698.94;5018317;28;20396;-87
2023/01/25 15:47:33;;;;;;;;;;;;;;;5.87;100.00;100701.56;5036008;28;19967;-89
2023/01/25 15:49:58;;;;;;;;;;;;;;;5.88;100.00;100698.03;5017862;28;20292;-89
2023/01/25 15:52:41;;;;;;;;;;;;;;;5.90;100.00;100695.41;5031889;28;19921;-90
2023/01/25 15:55:08;;;;;;;;;;;;;;;5.87;100.00;100696.31;5034732;28;20273;-88
2023/01/25 15:57:35;;;;;;;;;;;;;;;5.89;100.00;100693.63;5034661;28;19928;-90
2023/01/25 16:00:00;;;;;;;;;;;;;;;5.86;100.00;100691.94;5034087;28;19917;-87
2023/01/25 16:02:25;;;;;;;;;;;;;;;5.88;100.00;100686.66;5034651;28;19970;-84
2023/01/25 16:04:51;;;;;;;;;;;;;;;5.90;100.00;100688.38;5035410;28;19917;-88
2023/01/25 16:07:22;;;;;;;;;;;;;;;5.90;100.00;100683.09;5033456;28;20378;-88
2023/01/25 16:09:48;;;;;;;;;;;;;;;5.92;100.00;100683.09;5034128;28;19920;-83
2023/01/25 16:12:14;;;;;;;;;;;;;;;5.91;100.00;100684.88;5034115;28;19960;-87
2023/01/25 16:14:41;;;;;;;;;;;;;;;5.93;100.00;100684.84;5035457;28;19968;-87
2023/01/25 16:17:16;;;;;;;;;;;;;;;5.93;100.00;100685.72;5035285;28;20012;-85
2023/01/25 16:19:44;;;;;;;;;;;;;;;5.93;100.00;100687.47;5035308;28;19917;-90
2023/01/25 16:22:12;;;;;;;;;;;;;;;5.94;100.00;100686.59;5034000;28;19944;-86
2023/01/25 16:24:41;;;;;;;;;;;;;;;5.95;100.00;100689.22;5034023;28;20345;-90
2023/01/25 16:27:10;;;;;;;;;;;;;;;5.95;100.00;100677.81;5034880;28;20383;-85
2023/01/25 16:29:38;;;;;;;;;;;;;;;5.95;100.00;100670.81;5032184;28;19924;-90
2023/01/25 16:32:04;;;;;;;;;;;;;;;5.96;100.00;100675.19;5035323;28;20023;-88
2023/01/25 16:34:29;;;;;;;;;;;;;;;5.96;100.00;100675.19;5031969;28;20410;-86
2023/01/25 16:36:56;;;;;;;;;;;;;;;5.94;100.00;100676.94;5030241;28;19929;-87
2023/01/25 16:39:22;;;;;;;;;;;;;;;5.96;100.00;100675.19;5030218;28;20000;-88
2023/01/25 16:41:51;;;;;;;;;;;;;;;5.97;100.00;100676.94;5032263;28;20468;-86
2023/01/25 16:44:16;;;;;;;;;;;;;;;5.98;100.00;100668.19;5035392;28;20032;-87
2023/01/25 16:46:41;;;;;;;;;;;;;;;5.99;100.00;100667.28;5034098;28;20376;-86
2023/01/25 16:49:11;;;;;;;;;;;;;;;5.98;100.00;100678.72;5034247;28;20315;-91
2023/01/25 16:51:37;;;;;;;;;;;;;;;5.99;100.00;100675.16;5035591;28;20372;-82
2023/01/25 16:54:02;;;;;;;;;;;;;;;5.95;100.00;100678.69;5030802;28;19975;-85
2023/01/25 16:56:29;;;;;;;;;;;;;;;5.97;100.00;100684.84;5034864;28;20019;-88
2023/01/25 16:58:55;;;;;;;;;;;;;;;5.99;100.00;100674.31;5032580;28;20431;-85
2023/01/25 17:01:21;;;;;;;;;;;;;;;5.98;100.00;100673.44;5026911;28;19917;-87
2023/01/25 17:03:47;;;;;;;;;;;;;;;5.99;100.00;100669.91;5035281;28;19917;-86
2023/01/25 17:06:17;;;;;;;;;;;;;;;6.00;100.00;100671.66;5033823;28;19921;-89
2023/01/25 17:08:58;;;;;;;;;;;;;;;6.02;100.00;100666.38;5029885;28;20503;-92
2023/01/25 17:11:26;;;;;;;;;;;;;;;6.03;100.00;100664.63;5027385;28;20257;-87
2023/01/25 17:13:53;;;;;;;;;;;;;;;6.00;100.00;100655.88;5034523;28;19918;-88
2023/01/25 17:16:19;;;;;;;;;;;;;;;6.02;100.00;100653.22;5023496;28;19918;-86
2023/01/25 17:18:45;;;;;;;;;;;;;;;6.00;100.00;100647.97;5021082;28;19921;-85
2023/01/25 17:21:13;;;;;;;;;;;;;;;6.03;100.00;100651.47;5026704;28;20407;-88
2023/01/25 17:23:39;;;;;;;;;;;;;;;6.03;100.00;100659.34;5028727;28;20350;-86
2023/01/25 17:26:06;;;;;;;;;;;;;;;6.03;100.00;100654.09;5032391;28;19931;-88
2023/01/25 17:28:31;;;;;;;;;;;;;;;6.04;100.00;100661.09;5032128;28;20438;-86
2023/01/25 17:30:56;;;;;;;;;;;;;;;6.02;100.00;100655.00;5031069;28;19921;-85
2023/01/25 17:33:22;;;;;;;;;;;;;;;6.05;100.00;100647.03;5028786;28;20402;-90
2023/01/25 17:35:47;;;;;;;;;;;;;;;6.05;100.00;100636.50;5034741;28;20434;-85
2023/01/25 17:38:17;;;;;;;;;;;;;;;6.04;100.00;100647.94;5031107;28;20284;-86
2023/01/25 17:40:43;;;;;;;;;;;;;;;6.03;100.00;100638.31;5034226;28;20051;-91
2023/01/25 17:43:08;;;;;;;;;;;;;;;6.06;100.00;100633.88;5034443;28;19987;-90
2023/01/25 17:45:37;;;;;;;;;;;;;;;6.05;100.00;100633.88;5033880;28;19917;-87
2023/01/25 17:48:04;;;;;;;;;;;;;;;6.06;100.00;100636.50;5031952;28;19917;-87
2023/01/25 17:51:12;;;;;;;;;;;;;;;6.08;100.00;100632.13;5032196;28;19936;-89
2023/01/25 17:53:18;;;;;;;;;;;;;;;6.09;100.00;100632.97;5021387;28;19921;-85
2023/01/25 17:55:43;;;;;;;;;;;;;;;6.09;100.00;100627.72;5032859;28;19928;-85
2023/01/25 17:58:24;;;;;;;;;;;;;;;;;;;;;
2023/01/25 18:00:50;;;;;;;;;;;;;;;6.11;100.00;100633.81;5033556;28;19921;-89
2023/01/25 18:03:15;;;;;;;;;;;;;;;6.08;100.00;100633.84;5031707;28;20004;-85
2023/01/25 18:05:43;;;;;;;;;;;;;;;6.07;100.00;100627.72;5032709;28;20368;-87
2023/01/25 18:08:11;;;;;;;;;;;;;;;6.11;100.00;100623.31;5014601;28;20356;-89
2023/01/25 18:10:42;;;;;;;;;;;;;;;6.12;100.00;100630.31;5015826;28;19917;-87
2023/01/25 18:13:10;;;;;;;;;;;;;;;6.13;100.00;100619.78;5033312;28;20343;-89
2023/01/25 18:18:28;;;;;;;;;;;;;;;6.12;100.00;100606.63;5021891;28;19925;-89
2023/01/25 18:21:09;;;;;;;;;;;;;;;6.14;100.00;100612.75;5031626;28;19921;-89
2023/01/25 18:23:38;;;;;;;;;;;;;;;6.14;100.00;100604.84;5001712;28;20008;-86
2023/01/25 18:26:05;;;;;;;;;;;;;;;6.14;100.00;100604.84;5015002;28;19921;-89
2023/01/25 18:28:31;;;;;;;;;;;;;;;6.15;100.00;100607.47;5036773;28;20336;-89
2023/01/25 18:31:01;;;;;;;;;;;;;;;6.15;100.00;100604.81;5012214;28;19922;-84
2023/01/25 18:33:31;;;;;;;;;;;;;;;6.15;100.00;100609.22;5022816;28;19979;-87
2023/01/25 18:35:58;;;;;;;;;;;;;;;6.16;100.00;100606.59;5027561;28;20149;-88
2023/01/25 18:38:26;;;;;;;;;;;;;;;6.16;100.00;100608.34;5012269;28;19925;-89
2023/01/25 18:40:56;;;;;;;;;;;;;;;6.15;100.00;100602.19;5009675;28;20445;-90
2023/01/25 18:43:22;;;;;;;;;;;;;;;6.15;100.00;100594.31;5019241;28;19964;-87
2023/01/25 18:46:10;;;;;;;;;;;;;;;6.17;100.00;100589.91;5017884;28;19931;-90
2023/01/25 18:48:36;;;;;;;;;;;;;;;6.18;100.00;100591.63;5034721;28;19947;-86
2023/01/25 18:51:11;;;;;;;;;;;;;;;6.19;100.00;100592.53;5021376;28;20343;-86
2023/01/25 18:53:38;;;;;;;;;;;;;;;6.18;100.00;100581.09;5030742;28;19928;-86
2023/01/25 18:56:06;;;;;;;;;;;;;;;6.18;100.00;100580.25;5036038;28;20406;-91
2023/01/25 18:58:32;;;;;;;;;;;;;;;6.19;100.00;100582.00;5037307;28;19924;-86
2023/01/25 19:01:08;;;;;;;;;;;;;;;6.20;100.00;100581.09;5034835;28;20378;-87
2023/01/25 19:03:33;;;;;;;;;;;;;;;6.21;100.00;100581.94;5032482;28;20360;-87
2023/01/25 19:06:28;;;;;;;;;;;;;;;6.22;100.00;100586.34;5031479;28;19928;-84
2023/01/25 19:08:55;;;;;;;;;;;;;;;6.23;100.00;100578.44;5022617;28;20384;-87
2023/01/25 19:11:21;;;;;;;;;;;;;;;6.23;100.00;100582.81;5034398;28;19917;-86
2023/01/25 19:13:46;;;;;;;;;;;;;;;6.24;100.00;100584.56;5033616;28;19921;-88
2023/01/25 19:16:18;;;;;;;;;;;;;;;6.22;100.00;100576.66;5032454;28;19922;-90
2023/01/25 19:22:31;;;;;;;;;;;;;;;6.26;100.00;100573.13;4985861;28;19917;-90
2023/01/25 19:25:06;;;;;;;;;;;;;;;6.25;100.00;100566.09;5018934;28;19921;-85
2023/01/25 19:27:44;;;;;;;;;;;;;;;6.24;100.00;100559.13;5031195;28;19952;-89
2023/01/25 19:30:12;;;;;;;;;;;;;;;6.25;100.00;100565.25;5031876;28;20357;-87
2023/01/25 19:32:37;;;;;;;;;;;;;;;6.26;100.00;100573.13;5031349;28;20372;-83
2023/01/25 19:35:07;;;;;;;;;;;;;;;6.26;100.00;100561.75;5025576;28;19963;-86
2023/01/25 19:37:38;;;;;;;;;;;;;;;6.25;100.00;100566.09;5024379;28;19921;-84
2023/01/25 19:40:03;;;;;;;;;;;;;;;6.25;100.00;100559.97;5032723;28;20008;-88
2023/01/25 19:42:28;;;;;;;;;;;;;;;6.29;100.00;100565.19;5029599;28;20009;-84
2023/01/25 19:45:06;;;;;;;;;;;;;;;;;;;;;
2023/01/25 19:47:42;;;;;;;;;;;;;;;6.27;100.00;100564.34;5025317;28;19933;-88
2023/01/25 19:50:07;;;;;;;;;;;;;;;6.29;100.00;100557.28;5016343;28;19921;-84
2023/01/25 19:52:51;;;;;;;;;;;;;;;6.28;100.00;100555.53;5027828;28;19925;-84
2023/01/25 19:55:26;;;;;;;;;;;;;;;;;;;;;
2023/01/25 19:58:13;;;;;;;;;;;;;;;;;;;;;
2023/01/25 20:00:40;;;;;;;;;;;;;;;6.30;100.00;100540.63;5016825;28;20366;-85
2023/01/25 20:03:25;;;;;;;;;;;;;;;;;;;;;
2023/01/25 20:06:16;;;;;;;;;;;;;;;6.27;100.00;100538.03;5027903;28;19931;-85
2023/01/25 20:11:41;;;;;;;;;;;;;;;4.45;100.00;100544.97;5017948;28;20429;-84
2023/01/25 20:17:05;;;;;;;;;;;;;;;;;;;;;
2023/01/25 20:19:39;;;;;;;;;;;;;;;3.98;100.00;100541.66;5029914;28;19932;-91
2023/01/25 20:22:12;;;;;;;;;;;;;;;3.79;100.00;100535.59;5009003;28;20027;-84
2023/01/25 20:24:37;;;;;;;;;;;;;;;3.73;100.00;100542.63;5015915;28;20024;-83
2023/01/25 20:27:28;;;;;;;;;;;;;;;3.62;100.00;100530.44;5013314;28;20011;-83
2023/01/25 20:29:55;;;;;;;;;;;;;;;3.55;100.00;100526.06;5003984;28;19928;-84
2023/01/25 20:32:34;;;;;;;;;;;;;;;3.44;100.00;100526.09;4990184;28;19921;-88
2023/01/25 20:35:02;;;;;;;;;;;;;;;3.38;100.00;100530.47;4985959;28;20376;-86
2023/01/25 20:37:27;;;;;;;;;;;;;;;3.33;100.00;100521.75;4981782;28;19997;-84
2023/01/25 20:40:00;;;;;;;;;;;;;;;3.36;100.00;100519.13;4983014;28;20355;-83
2023/01/25 20:42:45;;;;;;;;;;;;;;;3.33;100.00;100522.63;4973658;28;20037;-84
2023/01/25 20:45:16;;;;;;;;;;;;;;;3.23;100.00;100519.13;4990072;28;19933;-83
2023/01/25 20:47:48;;;;;;;;;;;;;;;3.16;100.00;100509.56;4968129;28;19961;-83
2023/01/25 20:50:21;;;;;;;;;;;;;;;3.17;100.00;100508.66;4969059;28;19918;-83
2023/01/25 20:53:08;;;;;;;;;;;;;;;;;;;;;
2023/01/25 20:55:39;;;;;;;;;;;;;;;3.14;100.00;100506.03;5004068;28;20032;-84
2023/01/25 20:58:09;;;;;;;;;;;;;;;3.07;100.00;100499.94;5030350;28;19921;-83
2023/01/25 21:00:34;;;;;;;;;;;;;;;3.05;100.00;100504.31;4999281;28;20383;-87
2023/01/25 21:05:57;;;;;;;;;;;;;;;2.97;100.00;100492.09;4984747;28;19957;-83
2023/01/25 21:08:25;;;;;;;;;;;;;;;3.00;100.00;100489.47;4991351;28;19921;-86
2023/01/25 21:10:54;;;;;;;;;;;;;;;2.90;100.00;100491.22;4990318;28;19922;-83
2023/01/25 21:13:32;;;;;;;;;;;;;;;;;;;;;
2023/01/25 21:16:11;;;;;;;;;;;;;;;2.92;100.00;100484.28;4997078;28;19918;-91
2023/01/25 21:18:37;;;;;;;;;;;;;;;2.83;100.00;100484.25;5004929;28;19928;-88
2023/01/25 21:21:04;;;;;;;;;;;;;;;2.81;100.00;100483.38;4978968;28;19917;-89
2023/01/25 21:23:32;;;;;;;;;;;;;;;2.82;100.00;100477.28;5000224;28;20622;-86
2023/01/25 21:25:57;;;;;;;;;;;;;;;2.77;100.00;100471.19;5021217;28;19922;-89
2023/01/25 21:28:22;;;;;;;;;;;;;;;2.76;100.00;100461.56;5027023;28;19975;-86
2023/01/25 21:30:50;;;;;;;;;;;;;;;2.73;100.00;100460.69;5027226;28;20399;-86
2023/01/25 21:33:33;;;;;;;;;;;;;;;2.67;100.00;100454.59;5030784;28;19921;-85
2023/01/25 21:36:02;;;;;;;;;;;;;;;2.70;100.00;100457.22;5031804;28;19971;-83
2023/01/25 21:38:32;;;;;;;;;;;;;;;2.68;100.00;100457.22;5030761;28;19971;-85
2023/01/25 21:41:01;;;;;;;;;;;;;;;2.66;100.00;100451.09;5031708;28;20031;-84
2023/01/25 21:43:29;;;;;;;;;;;;;;;2.63;100.00;100445.88;5032427;28;19921;-86
2023/01/25 21:46:15;;;;;;;;;;;;;;;2.61;100.00;100451.97;5019187;28;19921;-87
2023/01/25 21:51:38;;;;;;;;;;;;;;;2.56;100.00;100433.66;5034809;28;20296;-85
2023/01/25 21:54:06;;;;;;;;;;;;;;;2.57;100.00;100435.41;5032522;28;19917;-83
2023/01/25 21:56:31;;;;;;;;;;;;;;;2.62;100.00;100433.66;5015532;28;19924;-87
2023/01/25 21:58:56;;;;;;;;;;;;;;;2.60;100.00;100427.56;5015757;28;19925;-89
2023/01/25 22:01:22;;;;;;;;;;;;;;;2.54;100.00;100422.34;5013357;28;20379;-90
2023/01/25 22:03:50;;;;;;;;;;;;;;;2.57;100.00;100424.94;5011962;28;20258;-86
2023/01/25 22:06:17;;;;;;;;;;;;;;;2.51;100.00;100419.72;5003609;28;20363;-90
2023/01/25 22:08:42;;;;;;;;;;;;;;;2.45;100.00;100419.72;5014459;28;19921;-90
2023/01/25 22:11:09;;;;;;;;;;;;;;;2.47;100.00;100411.00;5015771;28;20277;-90